Time;durP1;ratioP1;P1;durP2;ratioP2;P2;SDS_P1;SDS_P2;PMS_P1;PMS_P2;Temp;Humidity;BMP_temperature;BMP_pressure;BME280_temperature;BME280_humidity;BME280_pressure;Samples;Min_cycle;Max_cycle;Signal;HPM_P1;HPM_P2
2021/04/07 00:01:36;;;;;;;5.15;1.30;;;;;;;-0.34;100.00;100779.50;5008462;28;20084;-77
2021/04/07 00:04:01;;;;;;;7.30;2.05;;;;;;;-0.36;100.00;100770.00;5005695;28;20133;-77
2021/04/07 00:06:27;;;;;;;6.00;1.65;;;;;;;-0.35;100.00;100766.41;5002946;28;20386;-79
2021/04/07 00:08:52;;;;;;;12.40;2.55;;;;;;;-0.38;100.00;100767.44;5002963;28;20046;-77
2021/04/07 00:11:18;;;;;;;9.45;2.38;;;;;;;-0.39;100.00;100765.75;4994574;28;20131;-76
2021/04/07 00:13:45;;;;;;;11.98;2.55;;;;;;;-0.38;100.00;100764.81;4987884;28;20050;-78
2021/04/07 00:16:11;;;;;;;12.57;2.17;;;;;;;-0.40;100.00;100774.63;5001319;28;20052;-79
2021/04/07 00:18:37;;;;;;;12.68;2.35;;;;;;;-0.37;100.00;100768.31;5005168;28;20042;-75
2021/04/07 00:21:03;;;;;;;10.68;2.70;;;;;;;-0.36;100.00;100768.19;5005468;28;20379;-76
2021/04/07 00:23:29;;;;;;;10.50;2.40;;;;;;;-0.39;100.00;100775.47;5005903;28;20141;-77
2021/04/07 00:25:54;;;;;;;11.20;1.90;;;;;;;-0.39;100.00;100765.75;5001603;28;20050;-77
2021/04/07 00:28:20;;;;;;;10.55;2.10;;;;;;;-0.40;100.00;100766.72;4989563;28;20513;-80
2021/04/07 00:30:46;;;;;;;8.05;2.15;;;;;;;-0.38;100.00;100763.97;5005354;28;20046;-76
2021/04/07 00:33:12;;;;;;;13.02;2.13;;;;;;;-0.39;100.00;100759.63;5006199;28;20049;-76
2021/04/07 00:35:40;;;;;;;9.45;1.80;;;;;;;-0.44;100.00;100761.72;5007084;28;20498;-77
2021/04/07 00:38:07;;;;;;;9.18;2.45;;;;;;;-0.46;100.00;100764.47;5009930;28;20038;-75
2021/04/07 00:40:33;;;;;;;5.10;1.65;;;;;;;-0.49;100.00;100762.84;4983858;28;20081;-76
2021/04/07 00:43:01;;;;;;;8.15;1.80;;;;;;;-0.49;100.00;100775.16;5011715;28;20128;-77
2021/04/07 00:45:26;;;;;;;8.00;2.33;;;;;;;-0.52;100.00;100764.81;5006548;28;20057;-78
2021/04/07 00:47:54;;;;;;;11.13;2.53;;;;;;;-0.55;100.00;100772.91;5009771;28;20033;-77
2021/04/07 00:50:22;;;;;;;12.43;2.00;;;;;;;-0.54;100.00;100766.72;5009126;28;20045;-76
2021/04/07 00:52:48;;;;;;;8.85;2.50;;;;;;;-0.56;100.00;100765.94;4989051;28;20060;-80
2021/04/07 00:55:16;;;;;;;8.30;1.60;;;;;;;-0.54;100.00;100766.72;4989660;28;20212;-78
2021/04/07 00:57:45;;;;;;;7.75;2.05;;;;;;;-0.54;100.00;100764.06;5003034;28;20034;-78
2021/04/07 01:00:12;;;;;;;7.15;2.53;;;;;;;-0.58;100.00;100760.75;5007482;28;20038;-79
2021/04/07 01:02:39;;;;;;;7.30;2.35;;;;;;;-0.60;100.00;100761.81;5008390;28;20038;-76
2021/04/07 01:05:11;;;;;;;11.10;2.83;;;;;;;-0.57;100.00;100765.09;5009215;28;20398;-77
2021/04/07 01:07:37;;;;;;;8.88;2.45;;;;;;;-0.59;100.00;100763.50;5004522;28;20050;-78
2021/04/07 01:10:07;;;;;;;8.00;2.33;;;;;;;-0.66;100.00;100767.44;5002286;28;20045;-77
2021/04/07 01:12:33;;;;;;;12.35;2.72;;;;;;;-0.64;100.00;100765.56;5005570;28;20101;-79
2021/04/07 01:15:00;;;;;;;9.88;3.10;;;;;;;-0.65;100.00;100774.41;4989534;28;20065;-78
2021/04/07 01:17:25;;;;;;;7.20;2.80;;;;;;;-0.67;100.00;100769.22;5010120;28;20049;-79
2021/04/07 01:19:51;;;;;;;14.50;2.85;;;;;;;-0.65;100.00;100772.63;5011853;28;20038;-80
2021/04/07 01:22:19;;;;;;;7.00;2.55;;;;;;;-0.65;100.00;100775.25;5006734;28;20046;-75
2021/04/07 01:24:45;;;;;;;11.98;2.92;;;;;;;-0.65;100.00;100774.41;5009031;28;20556;-77
2021/04/07 01:27:11;;;;;;;12.57;2.97;;;;;;;-0.64;100.00;100781.38;5015423;28;20108;-79
2021/04/07 01:29:36;;;;;;;11.75;2.53;;;;;;;-0.64;100.00;100774.31;5006629;28;20486;-76
2021/04/07 01:32:02;;;;;;;14.27;3.45;;;;;;;-0.60;100.00;100788.16;5012325;28;20045;-78
2021/04/07 01:34:30;;;;;;;13.63;2.42;;;;;;;-0.64;100.00;100778.72;5008004;28;20521;-76
2021/04/07 01:36:57;;;;;;;13.88;3.13;;;;;;;-0.57;100.00;100780.06;5013192;28;20053;-77
2021/04/07 01:39:25;;;;;;;12.55;2.42;;;;;;;-0.56;100.00;100779.97;5006665;28;20053;-74
2021/04/07 01:41:51;;;;;;;8.32;2.47;;;;;;;-0.58;100.00;100775.72;5006689;28;20053;-76
2021/04/07 01:44:18;;;;;;;8.88;2.60;;;;;;;-0.58;100.00;100781.00;4987987;28;20045;-79
2021/04/07 01:46:45;;;;;;;13.13;2.92;;;;;;;-0.57;100.00;100772.16;4988788;28;20073;-78
2021/04/07 01:49:12;;;;;;;10.48;2.80;;;;;;;-0.58;100.00;100778.34;5017309;28;20056;-79
2021/04/07 01:51:37;;;;;;;8.90;2.90;;;;;;;-0.59;100.00;100781.94;5010383;28;20041;-80
2021/04/07 01:54:06;;;;;;;9.38;2.97;;;;;;;-0.62;100.00;100772.44;5013588;28;20528;-75
2021/04/07 01:56:32;;;;;;;12.40;3.17;;;;;;;-0.61;100.00;100760.94;4992032;28;20478;-80
2021/04/07 01:59:04;;;;;;;14.75;2.80;;;;;;;-0.59;100.00;100771.41;4991902;28;20053;-78
2021/04/07 02:01:29;;;;;;;7.43;2.47;;;;;;;-0.62;100.00;100764.53;4988880;28;20041;-76
2021/04/07 02:03:55;;;;;;;6.43;2.38;;;;;;;-0.62;100.00;100763.69;5006442;28;20427;-78
2021/04/07 02:06:20;;;;;;;13.32;2.63;;;;;;;-0.61;100.00;100760.09;4989846;28;20088;-76
2021/04/07 02:08:46;;;;;;;9.07;2.92;;;;;;;-0.61;100.00;100771.47;4974591;28;20045;-77
2021/04/07 02:11:11;;;;;;;7.65;2.55;;;;;;;-0.57;100.00;100775.66;5002941;28;20972;-78
2021/04/07 02:13:37;;;;;;;9.88;2.72;;;;;;;-0.57;100.00;100769.53;4972445;28;20046;-77
2021/04/07 02:16:10;;;;;;;10.10;2.55;;;;;;;-0.54;100.00;100766.72;5013022;28;20100;-76
2021/04/07 02:18:35;;;;;;;12.68;2.85;;;;;;;-0.54;100.00;100762.28;5012256;28;20060;-76
2021/04/07 02:21:01;;;;;;;12.15;3.33;;;;;;;-0.51;100.00;100762.09;4991902;28;20038;-77
2021/04/07 02:23:26;;;;;;;12.60;2.92;;;;;;;-0.49;100.00;100780.44;4976376;28;20128;-76
2021/04/07 02:25:51;;;;;;;7.18;2.85;;;;;;;-0.44;100.00;100773.09;5008825;28;20067;-75
2021/04/07 02:28:17;;;;;;;10.07;3.00;;;;;;;-0.40;100.00;100774.63;5005651;28;20069;-76
2021/04/07 02:30:42;;;;;;;11.70;2.60;;;;;;;-0.42;100.00;100760.69;4975475;28;20111;-77
2021/04/07 02:33:08;;;;;;;6.38;2.50;;;;;;;-0.43;100.00;100774.81;5006025;28;20046;-79
2021/04/07 02:35:33;;;;;;;10.35;2.50;;;;;;;-0.40;100.00;100773.75;5012644;28;20621;-79
2021/04/07 02:37:59;;;;;;;8.65;2.45;;;;;;;-0.37;100.00;100763.88;4987227;28;20448;-78
2021/04/07 02:40:24;;;;;;;6.57;2.35;;;;;;;-0.34;100.00;100768.97;4991848;28;20049;-78
2021/04/07 02:42:49;;;;;;;7.45;2.55;;;;;;;-0.33;100.00;100761.91;5008214;28;20198;-78
2021/04/07 02:45:15;;;;;;;8.82;2.55;;;;;;;-0.33;100.00;100754.81;4992366;28;20080;-78
2021/04/07 02:47:40;;;;;;;11.15;3.50;;;;;;;-0.30;100.00;100762.53;4991507;28;20422;-76
2021/04/07 02:50:06;;;;;;;8.77;2.45;;;;;;;-0.30;100.00;100759.06;5011331;28;20041;-78
2021/04/07 02:52:31;;;;;;;11.60;2.95;;;;;;;-0.28;100.00;100760.66;4996571;28;20069;-76
2021/04/07 02:54:57;;;;;;;11.35;2.63;;;;;;;-0.31;100.00;100750.31;4997664;28;20050;-79
2021/04/07 02:57:22;;;;;;;8.07;3.00;;;;;;;-0.30;100.00;100749.34;5016566;28;20470;-77
2021/04/07 02:59:49;;;;;;;9.38;3.00;;;;;;;-0.31;100.00;100747.69;5010264;28;20037;-78
2021/04/07 03:02:15;;;;;;;9.27;3.05;;;;;;;-0.32;100.00;100740.69;4992106;28;20064;-77
2021/04/07 03:04:40;;;;;;;8.88;3.63;;;;;;;-0.26;100.00;100742.97;4994070;28;20490;-80
2021/04/07 03:07:06;;;;;;;9.55;2.90;;;;;;;-0.30;100.00;100735.34;5011032;28;20042;-75
2021/04/07 03:09:31;;;;;;;9.13;3.17;;;;;;;-0.32;100.00;100740.69;5013460;28;20041;-79
2021/04/07 03:11:56;;;;;;;12.38;3.50;;;;;;;-0.32;100.00;100742.47;4979955;28;20042;-77
2021/04/07 03:14:23;;;;;;;11.93;3.92;;;;;;;-0.34;100.00;100741.75;5011782;28;20565;-76
2021/04/07 03:16:48;;;;;;;8.70;3.63;;;;;;;-0.31;100.00;100736.28;5012447;28;20037;-76
2021/04/07 03:19:14;;;;;;;12.07;3.55;;;;;;;-0.29;100.00;100739.66;5010512;28;20052;-78
2021/04/07 03:21:39;;;;;;;15.85;4.45;;;;;;;-0.27;100.00;100735.97;5006765;28;20060;-76
2021/04/07 03:24:05;;;;;;;8.52;3.85;;;;;;;-0.23;100.00;100744.56;4993036;28;20124;-80
2021/04/07 03:26:31;;;;;;;12.68;4.70;;;;;;;-0.24;100.00;100743.69;5006485;28;20037;-79
2021/04/07 03:28:56;;;;;;;11.90;4.38;;;;;;;-0.24;100.00;100732.31;5009767;28;20046;-76
2021/04/07 03:31:22;;;;;;;12.45;3.65;;;;;;;-0.19;100.00;100735.50;4997136;28;20069;-76
2021/04/07 03:33:47;;;;;;;14.20;4.22;;;;;;;-0.15;100.00;100736.16;4988287;28;20576;-79
2021/04/07 03:36:12;;;;;;;14.18;4.25;;;;;;;-0.14;100.00;100730.78;4994517;28;20038;-77
2021/04/07 03:38:38;;;;;;;9.57;3.13;;;;;;;-0.18;100.00;100729.28;4994715;28;20121;-78
2021/04/07 03:41:04;;;;;;;9.98;3.85;;;;;;;-0.13;100.00;100721.09;5010149;28;20128;-79
2021/04/07 03:43:30;;;;;;;8.27;3.90;;;;;;;-0.10;100.00;100734.06;5013200;28;20064;-77
2021/04/07 03:45:57;;;;;;;5.90;3.25;;;;;;;-0.08;100.00;100716.38;4996934;28;20041;-81
2021/04/07 03:48:28;;;;;;;10.07;3.58;;;;;;;-0.05;100.00;100732.84;5005408;28;20220;-79
2021/04/07 03:50:54;;;;;;;10.05;3.28;;;;;;;-0.02;100.00;100723.88;4989784;28;20041;-79
2021/04/07 03:53:21;;;;;;;7.13;3.67;;;;;;;-0.02;100.00;100726.53;4990352;28;20058;-76
2021/04/07 03:55:50;;;;;;;9.48;3.75;;;;;;;0.03;100.00;100726.22;5009332;28;20046;-76
2021/04/07 03:58:16;;;;;;;13.50;4.78;;;;;;;0.04;100.00;100725.28;5005705;28;20038;-80
2021/04/07 04:00:43;;;;;;;9.57;3.80;;;;;;;0.02;100.00;100714.81;4990516;28;20435;-76
2021/04/07 04:03:09;;;;;;;11.18;3.40;;;;;;;0.03;100.00;100720.94;4993414;28;20387;-76
2021/04/07 04:05:35;;;;;;;8.07;3.53;;;;;;;0.05;100.00;100716.41;5012918;28;20513;-79
2021/04/07 04:08:01;;;;;;;9.23;3.95;;;;;;;0.05;100.00;100709.34;5008935;28;20041;-76
2021/04/07 04:10:27;;;;;;;14.68;5.85;;;;;;;0.06;100.00;100733.94;5009249;28;20054;-78
2021/04/07 04:12:53;;;;;;;10.40;4.25;;;;;;;0.02;100.00;100703.44;5003528;28;20057;-78
2021/04/07 04:15:20;;;;;;;8.68;5.00;;;;;;;0.03;100.00;100713.91;4986372;28;20046;-77
2021/04/07 04:17:47;;;;;;;15.05;5.50;;;;;;;0.02;100.00;100703.44;4976348;28;20050;-79
2021/04/07 04:20:15;;;;;;;14.68;5.70;;;;;;;0.02;100.00;100722.72;5008348;28;20060;-77
2021/04/07 04:22:41;;;;;;;12.90;5.78;;;;;;;-0.01;100.00;100715.03;5008355;28;20082;-77
2021/04/07 04:25:09;;;;;;;14.85;6.45;;;;;;;0.02;100.00;100714.81;4982931;28;20038;-79
2021/04/07 04:27:36;;;;;;;14.75;7.38;;;;;;;0.03;100.00;100713.03;5006965;28;20042;-79
2021/04/07 04:30:05;;;;;;;10.35;6.18;;;;;;;0.02;100.00;100717.47;5009731;28;20044;-79
2021/04/07 04:32:31;;;;;;;;;;;;;;;0.03;100.00;100710.38;4990640;28;20044;-79
2021/04/07 04:34:57;;;;;;;13.38;7.95;;;;;;;-0.01;100.00;100712.38;5010274;28;19921;-75
2021/04/07 04:37:22;;;;;;;16.25;7.13;;;;;;;-0.01;100.00;100702.66;5010150;28;20112;-76
2021/04/07 04:39:47;;;;;;;15.30;10.00;;;;;;;0.03;100.00;100708.63;5010961;28;20044;-76
2021/04/07 04:42:20;;;;;;;17.40;8.55;;;;;;;0.06;100.00;100712.81;5008470;28;20513;-78
2021/04/07 04:44:46;;;;;;;14.35;9.32;;;;;;;0.09;100.00;100704.75;5010595;28;20471;-76
2021/04/07 04:47:11;;;;;;;14.05;7.82;;;;;;;0.08;100.00;100710.94;4989194;28;20045;-79
2021/04/07 04:49:36;;;;;;;17.65;9.68;;;;;;;0.09;100.00;100707.38;5008854;28;20038;-79
2021/04/07 04:52:02;;;;;;;17.85;9.05;;;;;;;0.08;100.00;100695.09;5005828;28;20044;-76
2021/04/07 04:54:27;;;;;;;15.35;9.27;;;;;;;0.11;100.00;100695.75;5004342;28;20050;-77
2021/04/07 04:56:53;;;;;;;17.77;9.40;;;;;;;0.12;100.00;100702.75;5003123;28;20057;-76
2021/04/07 04:59:19;;;;;;;16.10;8.00;;;;;;;0.12;100.00;100693.97;5006925;28;20517;-75
2021/04/07 05:01:45;;;;;;;17.17;9.05;;;;;;;0.14;100.00;100702.63;5007950;28;20487;-77
2021/04/07 05:04:10;;;;;;;17.75;8.38;;;;;;;0.14;100.00;100700.81;4986200;28;20038;-78
2021/04/07 05:06:41;;;;;;;17.50;9.32;;;;;;;0.17;100.00;100698.00;5008777;28;20046;-78
2021/04/07 05:09:07;;;;;;;14.70;7.38;;;;;;;0.15;100.00;100702.53;4983523;28;20048;-79
2021/04/07 05:11:34;;;;;;;14.73;7.10;;;;;;;0.15;100.00;100697.25;5011680;28;20061;-79
2021/04/07 05:14:00;;;;;;;16.20;7.95;;;;;;;0.12;100.00;100708.03;5006664;28;20502;-77
2021/04/07 05:16:26;;;;;;;16.55;8.65;;;;;;;0.13;100.00;100688.59;5008980;28;20042;-77
2021/04/07 05:18:51;;;;;;;17.30;7.70;;;;;;;0.13;100.00;100682.47;5011148;28;20033;-79
2021/04/07 05:21:17;;;;;;;11.40;6.72;;;;;;;0.11;100.00;100687.00;4992539;28;20050;-75
2021/04/07 05:23:43;;;;;;;15.05;7.57;;;;;;;0.11;100.00;100684.34;4989220;28;20049;-76
2021/04/07 05:26:09;;;;;;;13.52;6.68;;;;;;;0.12;100.00;100668.44;5007078;28;20378;-77
2021/04/07 05:28:41;;;;;;;15.98;9.15;;;;;;;0.19;100.00;100680.25;5003608;28;20042;-78
2021/04/07 05:31:08;;;;;;;15.60;7.55;;;;;;;0.17;100.00;100671.63;5008386;28;20058;-78
2021/04/07 05:33:36;;;;;;;14.00;8.48;;;;;;;0.19;100.00;100677.63;4991717;28;20054;-78
2021/04/07 05:36:07;;;;;;;12.55;8.25;;;;;;;0.19;100.00;100663.59;5009440;28;20049;-79
2021/04/07 05:38:34;;;;;;;14.25;7.57;;;;;;;0.17;100.00;100676.91;4982986;28;20053;-77
2021/04/07 05:41:01;;;;;;;12.57;6.85;;;;;;;0.18;100.00;100672.47;5001554;28;20052;-77
2021/04/07 05:43:28;;;;;;;11.75;5.97;;;;;;;0.18;100.00;100661.91;5002824;28;20052;-80
2021/04/07 05:45:54;;;;;;;13.50;7.78;;;;;;;0.21;100.00;100659.91;4983589;28;20053;-80
2021/04/07 05:48:19;;;;;;;12.20;6.82;;;;;;;0.21;100.00;100661.72;5006999;28;20042;-78
2021/04/07 05:50:47;;;;;;;15.90;9.25;;;;;;;0.23;100.00;100662.44;5012164;28;20128;-76
2021/04/07 05:53:14;;;;;;;13.25;8.45;;;;;;;0.24;100.00;100679.97;5017472;28;20064;-79
2021/04/07 05:55:43;;;;;;;15.07;7.70;;;;;;;0.27;100.00;100673.66;5008278;28;20041;-77
2021/04/07 05:58:10;;;;;;;12.23;7.18;;;;;;;0.26;100.00;100672.81;5021702;28;20548;-79
2021/04/07 06:00:35;;;;;;;12.07;7.40;;;;;;;0.27;100.00;100673.66;5012644;28;20049;-78
2021/04/07 06:03:03;;;;;;;11.10;7.18;;;;;;;0.25;100.00;100665.81;5007483;28;20351;-77
2021/04/07 06:05:28;;;;;;;14.77;7.75;;;;;;;0.28;100.00;100662.13;4990141;28;20490;-78
2021/04/07 06:07:55;;;;;;;11.70;6.32;;;;;;;0.27;100.00;100673.66;5011386;28;20042;-79
2021/04/07 06:10:21;;;;;;;12.52;6.78;;;;;;;0.27;100.00;100673.66;4992182;28;20062;-79
2021/04/07 06:12:46;;;;;;;11.40;5.70;;;;;;;0.26;100.00;100671.94;5014129;28;20131;-80
2021/04/07 06:15:12;;;;;;;12.80;7.50;;;;;;;0.26;100.00;100667.53;5007310;28;20034;-78
2021/04/07 06:17:41;;;;;;;12.13;8.60;;;;;;;0.31;100.00;100654.00;4988510;28;20049;-80
2021/04/07 06:20:11;;;;;;;13.82;7.40;;;;;;;0.27;100.00;100657.81;4971001;28;20494;-81
2021/04/07 06:22:37;;;;;;;14.13;8.20;;;;;;;0.26;100.00;100662.25;4989389;28;20053;-80
2021/04/07 06:25:06;;;;;;;13.52;9.10;;;;;;;0.30;100.00;100676.09;4996696;28;20038;-82
2021/04/07 06:27:32;;;;;;;16.30;9.75;;;;;;;0.31;100.00;100661.94;5010003;28;20045;-79
2021/04/07 06:30:00;;;;;;;12.93;8.38;;;;;;;0.32;100.00;100661.84;5009819;28;20030;-82
2021/04/07 06:32:26;;;;;;;15.43;9.57;;;;;;;0.34;100.00;100662.56;5004386;28;20181;-82
2021/04/07 06:34:52;;;;;;;17.50;8.18;;;;;;;0.35;100.00;100651.09;5008294;28;20053;-79
2021/04/07 06:37:17;;;;;;;13.73;8.25;;;;;;;0.35;100.00;100666.91;5005822;28;20423;-79
2021/04/07 06:39:42;;;;;;;14.27;8.63;;;;;;;0.37;100.00;100669.44;5004262;28;20041;-78
2021/04/07 06:42:08;;;;;;;13.15;8.80;;;;;;;0.38;100.00;100673.78;5010852;28;20065;-78
2021/04/07 06:44:34;;;;;;;14.70;8.60;;;;;;;0.40;100.00;100669.22;5007993;28;20177;-81
2021/04/07 06:47:00;;;;;;;12.65;7.85;;;;;;;0.39;100.00;100672.84;4997836;28;20038;-78
2021/04/07 06:49:27;;;;;;;13.63;8.15;;;;;;;0.42;100.00;100673.47;4990749;28;20046;-78
2021/04/07 06:51:54;;;;;;;13.50;9.05;;;;;;;0.41;100.00;100666.50;5013128;28;20044;-81
2021/04/07 06:54:26;;;;;;;13.77;8.85;;;;;;;0.45;100.00;100667.16;4961057;28;20045;-80
2021/04/07 06:56:52;;;;;;;15.43;9.60;;;;;;;0.44;100.00;100671.59;4997833;28;20129;-80
2021/04/07 06:59:17;;;;;;;15.60;9.15;;;;;;;0.45;100.00;100673.25;5014983;28;20116;-78
2021/04/07 07:01:43;;;;;;;13.57;9.55;;;;;;;0.46;100.00;100666.19;4995734;28;20398;-80
2021/04/07 07:04:08;;;;;;;15.30;8.48;;;;;;;0.51;100.00;100668.53;5007173;28;20042;-78
2021/04/07 07:06:34;;;;;;;14.13;8.98;;;;;;;0.52;100.00;100667.56;5002356;28;20435;-77
2021/04/07 07:09:10;;;;;;;10.77;6.35;;;;;;;0.51;100.00;100664.09;5008523;28;20038;-80
2021/04/07 07:11:35;;;;;;;12.52;7.28;;;;;;;0.51;100.00;100671.16;4974314;28;20042;-76
2021/04/07 07:14:01;;;;;;;11.30;6.57;;;;;;;0.51;100.00;100669.38;5016736;28;20077;-76
2021/04/07 07:16:27;;;;;;;11.50;8.13;;;;;;;0.53;100.00;100670.13;5009552;28;20053;-77
2021/04/07 07:18:52;;;;;;;12.45;7.95;;;;;;;0.58;100.00;100678.59;5013956;28;20077;-78
2021/04/07 07:21:19;;;;;;;14.10;8.55;;;;;;;0.63;100.00;100667.69;5010816;28;20072;-77
2021/04/07 07:23:46;;;;;;;11.20;6.88;;;;;;;0.67;100.00;100666.56;4989842;28;20046;-76
2021/04/07 07:26:14;;;;;;;12.27;6.43;;;;;;;0.75;100.00;100681.88;4987794;28;20038;-77
2021/04/07 07:28:44;;;;;;;13.23;7.05;;;;;;;0.76;100.00;100676.50;5004070;28;20065;-78
2021/04/07 07:31:36;;;;;;;12.45;8.50;;;;;;;0.84;100.00;100678.63;5004149;28;20034;-78
2021/04/07 07:34:04;;;;;;;18.27;7.43;;;;;;;0.87;100.00;100694.25;4997055;28;20100;-79
2021/04/07 07:36:34;;;;;;;13.85;9.45;;;;;;;0.89;100.00;100690.56;5012780;28;20042;-78
2021/04/07 07:38:59;;;;;;;15.75;8.93;;;;;;;0.92;100.00;100699.22;4991602;28;20041;-78
2021/04/07 07:41:30;;;;;;;13.70;8.77;;;;;;;0.91;100.00;100706.31;5007600;28;20470;-78
2021/04/07 07:43:55;;;;;;;14.70;7.53;;;;;;;0.90;100.00;100713.41;5014857;28;20100;-78
2021/04/07 07:46:25;;;;;;;13.80;8.52;;;;;;;0.94;100.00;100702.63;4978288;28;20030;-76
2021/04/07 07:48:51;;;;;;;14.05;9.82;;;;;;;0.97;100.00;100715.63;5013841;28;20046;-79
2021/04/07 07:51:16;;;;;;;14.82;8.98;;;;;;;0.99;100.00;100711.91;4994801;28;20400;-77
2021/04/07 07:53:43;;;;;;;15.40;9.25;;;;;;;1.02;100.00;100721.44;4988875;28;20053;-79
2021/04/07 07:56:08;;;;;;;16.98;10.45;;;;;;;1.06;100.00;100721.09;5005061;28;20046;-77
2021/04/07 07:58:41;;;;;;;19.33;11.20;;;;;;;1.13;100.00;100718.91;4981123;28;20053;-77
2021/04/07 08:01:10;;;;;;;17.63;10.75;;;;;;;1.16;100.00;100731.06;5008026;28;20050;-79
2021/04/07 08:03:35;;;;;;;17.52;11.73;;;;;;;1.22;100.00;100731.50;5017663;28;20056;-78
2021/04/07 08:06:01;;;;;;;17.20;9.10;;;;;;;1.27;100.00;100736.47;5011330;28;20489;-78
2021/04/07 08:08:27;;;;;;;13.80;8.93;;;;;;;1.35;100.00;100742.03;5007444;28;20046;-79
2021/04/07 08:10:56;;;;;;;15.43;9.20;;;;;;;1.44;100.00;100741.44;5009279;28;20161;-80
2021/04/07 08:13:28;;;;;;;16.63;8.88;;;;;;;1.54;100.00;100753.03;5010601;28;20046;-78
2021/04/07 08:15:56;;;;;;;18.15;8.45;;;;;;;1.66;100.00;100750.50;5017235;28;20046;-78
2021/04/07 08:18:24;;;;;;;21.40;10.38;;;;;;;1.76;100.00;100751.56;4999819;28;20398;-78
2021/04/07 08:20:50;;;;;;;17.02;8.13;;;;;;;1.90;100.00;100758.47;4995121;28;20051;-79
2021/04/07 08:23:18;;;;;;;14.45;9.00;;;;;;;2.02;100.00;100758.47;5014229;28;20137;-79
2021/04/07 08:25:47;;;;;;;16.92;9.30;;;;;;;2.18;100.00;100760.84;4995502;28;20595;-79
2021/04/07 08:28:16;;;;;;;16.38;8.13;;;;;;;2.39;100.00;100744.38;5014664;28;20065;-80
2021/04/07 08:30:43;;;;;;;17.10;7.20;;;;;;;2.54;100.00;100745.03;5019934;28;20050;-78
2021/04/07 08:33:09;;;;;;;17.23;8.98;;;;;;;2.75;100.00;100775.22;5014619;28;20034;-78
2021/04/07 08:35:34;;;;;;;16.17;8.57;;;;;;;2.92;100.00;100780.13;4996400;28;20038;-79
2021/04/07 08:38:04;;;;;;;14.30;7.32;;;;;;;3.09;100.00;100776.19;5009117;28;20053;-79
2021/04/07 08:40:44;;;;;;;12.20;5.57;;;;;;;3.17;100.00;100784.41;5011631;28;20523;-79
2021/04/07 08:43:13;;;;;;;12.48;5.32;;;;;;;3.24;100.00;100776.81;5008907;28;20103;-79
2021/04/07 08:45:46;;;;;;;10.95;4.82;;;;;;;3.36;100.00;100778.53;4995505;28;20091;-78
2021/04/07 08:48:21;;;;;;;11.38;5.20;;;;;;;3.44;100.00;100780.59;5007811;28;20479;-78
2021/04/07 08:51:04;;;;;;;13.52;4.75;;;;;;;3.55;100.00;100777.97;5012370;28;20190;-78
2021/04/07 08:53:32;;;;;;;10.27;4.50;;;;;;;3.71;100.00;100788.25;4990823;28;20093;-78
2021/04/07 08:56:05;;;;;;;10.40;4.13;;;;;;;3.81;100.00;100794.50;4976301;28;20045;-79
2021/04/07 08:58:30;;;;;;;8.85;4.50;;;;;;;3.91;100.00;100796.44;4987866;28;20041;-79
2021/04/07 09:00:57;;;;;;;13.50;4.10;;;;;;;3.97;100.00;100801.25;5007570;28;20058;-78
2021/04/07 09:03:27;;;;;;;14.60;4.25;;;;;;;4.07;100.00;100804.88;5010257;28;20050;-79
2021/04/07 09:05:54;;;;;;;13.60;4.82;;;;;;;4.12;100.00;100791.25;4974820;28;20042;-78
2021/04/07 09:08:22;;;;;;;13.85;4.72;;;;;;;4.11;100.00;100802.81;5004754;28;20037;-79
2021/04/07 09:10:58;;;;;;;13.85;4.60;;;;;;;4.00;100.00;100785.94;5001721;28;20129;-79
2021/04/07 09:13:26;;;;;;;9.65;4.35;;;;;;;4.03;100.00;100806.94;5002418;28;20050;-79
2021/04/07 09:15:55;;;;;;;11.68;4.18;;;;;;;4.02;100.00;100801.72;5005413;28;20046;-79
2021/04/07 09:18:34;;;;;;;12.88;4.03;;;;;;;4.03;100.00;100806.09;5009527;28;20134;-78
2021/04/07 09:21:01;;;;;;;13.23;4.45;;;;;;;4.00;100.00;100806.31;5005980;28;20038;-78
2021/04/07 09:23:32;;;;;;;12.30;4.40;;;;;;;4.00;100.00;100809.84;4990116;28;20050;-78
2021/04/07 09:26:09;;;;;;;16.77;4.75;;;;;;;4.06;100.00;100814.66;4997970;28;20038;-79
2021/04/07 09:28:41;;;;;;;12.15;4.47;;;;;;;4.23;100.00;100807.13;4990865;28;20050;-79
2021/04/07 09:31:19;;;;;;;9.48;3.15;;;;;;;4.40;100.00;100825.25;4990628;28;20037;-80
2021/04/07 09:33:47;;;;;;;7.53;3.22;;;;;;;4.51;100.00;100829.69;4973761;28;20038;-79
2021/04/07 09:36:14;;;;;;;8.80;2.75;;;;;;;4.62;100.00;100827.00;4991276;28;20425;-79
2021/04/07 09:38:51;;;;;;;9.10;2.10;;;;;;;4.69;100.00;100816.69;5005259;28;20042;-80
2021/04/07 09:41:27;;;;;;;6.97;2.00;;;;;;;4.75;100.00;100830.34;4988548;28;20088;-79
2021/04/07 09:43:54;;;;;;;6.55;1.92;;;;;;;4.77;100.00;100840.00;5002615;28;20056;-80
2021/04/07 09:46:20;;;;;;;9.10;1.63;;;;;;;4.77;100.00;100845.31;5004125;28;20065;-80
2021/04/07 09:48:55;;;;;;;8.07;2.03;;;;;;;4.77;100.00;100843.50;5008840;28;20496;-81
2021/04/07 09:51:32;;;;;;;5.95;1.45;;;;;;;4.57;100.00;100858.41;4987569;28;20073;-80
2021/04/07 09:54:18;;;;;;;3.88;1.00;;;;;;;4.40;100.00;100872.22;4997624;28;20442;-79
2021/04/07 09:56:48;;;;;;;4.15;1.23;;;;;;;4.25;100.00;100869.81;4971832;28;20057;-81
2021/04/07 09:59:13;;;;;;;5.85;1.55;;;;;;;4.22;100.00;100878.03;5000449;28;20046;-80
2021/04/07 10:01:40;;;;;;;8.10;1.70;;;;;;;4.25;100.00;100877.78;4993919;28;20049;-79
2021/04/07 10:04:06;;;;;;;11.10;2.50;;;;;;;4.28;100.00;100880.19;5005919;28;20678;-80
2021/04/07 10:06:31;;;;;;;7.13;2.53;;;;;;;4.35;100.00;100887.69;4987261;28;20129;-81
2021/04/07 10:09:04;;;;;;;14.32;2.60;;;;;;;4.45;100.00;100878.00;4987392;28;20137;-80
2021/04/07 10:11:31;;;;;;;11.52;1.98;;;;;;;4.53;100.00;100880.91;4990357;28;20109;-80
2021/04/07 10:14:01;;;;;;;8.98;2.10;;;;;;;4.62;100.00;100880.16;4983646;28;20050;-80
2021/04/07 10:16:35;;;;;;;9.35;2.30;;;;;;;4.82;100.00;100875.06;4991481;28;20041;-81
2021/04/07 10:19:06;;;;;;;9.05;1.98;;;;;;;5.02;100.00;100881.41;4995161;28;20414;-79
2021/04/07 10:21:32;;;;;;;12.38;2.10;;;;;;;5.15;100.00;100877.59;5007387;28;20446;-79
2021/04/07 10:23:59;;;;;;;9.65;2.75;;;;;;;5.24;100.00;100891.13;5006357;28;20038;-79
2021/04/07 10:26:25;;;;;;;15.32;2.60;;;;;;;5.37;100.00;100881.13;4998908;28;20045;-79
2021/04/07 10:29:01;;;;;;;14.32;2.33;;;;;;;5.41;99.71;100878.09;5008826;28;20100;-80
2021/04/07 10:31:28;;;;;;;16.73;2.85;;;;;;;5.40;97.06;100895.00;4997808;28;20541;-80
2021/04/07 10:34:09;;;;;;;14.85;3.00;;;;;;;5.54;98.26;100891.19;4993109;28;20140;-78
2021/04/07 10:36:37;;;;;;;16.85;3.42;;;;;;;5.62;98.44;100902.03;4999509;28;20043;-80
2021/04/07 10:39:13;;;;;;;13.30;2.85;;;;;;;5.51;96.37;100902.09;4987960;28;20042;-80
2021/04/07 10:41:39;;;;;;;12.60;2.28;;;;;;;5.24;95.70;100907.91;5005512;28;20042;-81
2021/04/07 10:44:06;;;;;;;9.18;2.33;;;;;;;4.98;96.82;100924.22;5002539;28;20056;-80
2021/04/07 10:46:31;;;;;;;8.63;1.75;;;;;;;4.72;97.11;100950.25;4986546;28;20049;-81
2021/04/07 10:48:58;;;;;;;8.40;1.25;;;;;;;4.57;94.99;100924.03;4991506;28;20037;-79
2021/04/07 10:51:29;;;;;;;9.32;1.83;;;;;;;4.62;94.02;100933.31;4989629;28;20164;-79
2021/04/07 10:53:57;;;;;;;12.02;2.38;;;;;;;4.69;94.44;100929.22;5006623;28;20050;-77
2021/04/07 10:56:24;;;;;;;9.85;2.72;;;;;;;4.87;96.43;100928.72;5005360;28;20050;-79
2021/04/07 10:58:56;;;;;;;12.30;2.83;;;;;;;5.05;95.29;100939.66;4990206;28;20080;-78
2021/04/07 11:01:37;;;;;;;11.00;2.45;;;;;;;5.28;94.76;100932.44;5006762;28;20417;-78
2021/04/07 11:04:17;;;;;;;12.35;2.50;;;;;;;5.50;94.88;100952.81;5007750;28;20457;-78
2021/04/07 11:06:43;;;;;;;14.68;2.58;;;;;;;5.62;94.35;100944.66;5001221;28;20703;-81
2021/04/07 11:09:12;;;;;;;11.75;2.53;;;;;;;5.64;93.15;100941.88;5013596;28;20053;-79
2021/04/07 11:11:40;;;;;;;15.82;3.40;;;;;;;5.50;93.07;100956.31;4988260;28;20042;-79
2021/04/07 11:14:08;;;;;;;15.35;2.92;;;;;;;5.50;94.46;100958.97;4985230;28;20386;-79
2021/04/07 11:16:34;;;;;;;10.80;2.17;;;;;;;5.49;94.70;100951.94;5018954;28;20100;-79
2021/04/07 11:19:01;;;;;;;11.43;2.67;;;;;;;5.67;96.25;100962.91;5020744;28;20042;-79